sensor_id;sensor_type;location;lat;lon;timestamp;temperature;humidity
42201;DHT22;27869;51.442;7.540;2023-02-12T00:01:01;7.80;99.90
42201;DHT22;27869;51.442;7.540;2023-02-12T00:03:28;7.80;99.90
42201;DHT22;27869;51.442;7.540;2023-02-12T00:05:59;7.80;99.90
42201;DHT22;27869;51.442;7.540;2023-02-12T00:08:27;7.80;99.90
42201;DHT22;27869;51.442;7.540;2023-02-12T00:10:54;7.80;99.90
42201;DHT22;27869;51.442;7.540;2023-02-12T00:13:21;7.80;99.90
42201;DHT22;27869;51.442;7.540;2023-02-12T00:15:48;7.70;99.90
42201;DHT22;27869;51.442;7.540;2023-02-12T00:18:15;7.80;99.90
42201;DHT22;27869;51.442;7.540;2023-02-12T00:20:42;7.80;99.90
42201;DHT22;27869;51.442;7.540;2023-02-12T00:23:09;7.70;99.90
42201;DHT22;27869;51.442;7.540;2023-02-12T00:25:41;7.80;99.90
42201;DHT22;27869;51.442;7.540;2023-02-12T00:28:08;7.80;99.90
42201;DHT22;27869;51.442;7.540;2023-02-12T00:30:35;7.70;99.90
42201;DHT22;27869;51.442;7.540;2023-02-12T00:33:02;7.70;99.90
42201;DHT22;27869;51.442;7.540;2023-02-12T00:35:28;7.70;99.90
42201;DHT22;27869;51.442;7.540;2023-02-12T00:37:55;7.70;99.90
42201;DHT22;27869;51.442;7.540;2023-02-12T00:40:22;7.70;99.90
42201;DHT22;27869;51.442;7.540;2023-02-12T00:42:51;7.70;99.90
42201;DHT22;27869;51.442;7.540;2023-02-12T00:45:19;7.70;99.90
42201;DHT22;27869;51.442;7.540;2023-02-12T00:47:46;7.70;99.90
42201;DHT22;27869;51.442;7.540;2023-02-12T00:50:13;7.70;99.90
42201;DHT22;27869;51.442;7.540;2023-02-12T00:52:39;7.70;99.90
42201;DHT22;27869;51.442;7.540;2023-02-12T00:55:07;7.70;99.90
42201;DHT22;27869;51.442;7.540;2023-02-12T00:57:34;7.70;99.90
42201;DHT22;27869;51.442;7.540;2023-02-12T01:00:03;7.70;99.90
42201;DHT22;27869;51.442;7.540;2023-02-12T01:02:30;7.70;99.90
42201;DHT22;27869;51.442;7.540;2023-02-12T01:04:57;7.70;99.90
42201;DHT22;27869;51.442;7.540;2023-02-12T01:07:24;7.70;99.90
42201;DHT22;27869;51.442;7.540;2023-02-12T01:09:51;7.70;99.90
42201;DHT22;27869;51.442;7.540;2023-02-12T01:12:17;7.70;99.90
42201;DHT22;27869;51.442;7.540;2023-02-12T01:14:44;7.70;99.90
42201;DHT22;27869;51.442;7.540;2023-02-12T01:17:12;7.70;99.90
42201;DHT22;27869;51.442;7.540;2023-02-12T01:19:39;7.70;99.90
42201;DHT22;27869;51.442;7.540;2023-02-12T01:22:06;7.70;99.90
42201;DHT22;27869;51.442;7.540;2023-02-12T01:24:33;7.70;99.90
42201;DHT22;27869;51.442;7.540;2023-02-12T01:27:00;7.70;99.90
42201;DHT22;27869;51.442;7.540;2023-02-12T01:29:27;7.70;99.90
42201;DHT22;27869;51.442;7.540;2023-02-12T01:31:53;7.70;99.90
42201;DHT22;27869;51.442;7.540;2023-02-12T01:34:22;7.70;99.90
42201;DHT22;27869;51.442;7.540;2023-02-12T01:36:49;7.70;99.90
42201;DHT22;27869;51.442;7.540;2023-02-12T01:39:15;7.70;99.90
42201;DHT22;27869;51.442;7.540;2023-02-12T01:41:43;7.70;99.90
42201;DHT22;27869;51.442;7.540;2023-02-12T01:44:14;7.70;99.90
42201;DHT22;27869;51.442;7.540;2023-02-12T01:46:43;7.60;99.90
42201;DHT22;27869;51.442;7.540;2023-02-12T01:49:14;7.70;99.90
42201;DHT22;27869;51.442;7.540;2023-02-12T01:51:44;7.70;99.90
42201;DHT22;27869;51.442;7.540;2023-02-12T01:54:14;7.70;99.90
42201;DHT22;27869;51.442;7.540;2023-02-12T01:56:43;7.70;99.90
42201;DHT22;27869;51.442;7.540;2023-02-12T01:59:10;7.70;99.90
42201;DHT22;27869;51.442;7.540;2023-02-12T02:01:38;7.60;99.90
42201;DHT22;27869;51.442;7.540;2023-02-12T02:04:08;7.70;99.90
42201;DHT22;27869;51.442;7.540;2023-02-12T02:06:41;7.60;99.90
42201;DHT22;27869;51.442;7.540;2023-02-12T02:09:13;7.60;99.90
42201;DHT22;27869;51.442;7.540;2023-02-12T02:11:40;7.60;99.90
42201;DHT22;27869;51.442;7.540;2023-02-12T02:14:25;7.60;99.90
42201;DHT22;27869;51.442;7.540;2023-02-12T02:17:23;7.60;99.90
42201;DHT22;27869;51.442;7.540;2023-02-12T02:20:16;7.60;99.90
42201;DHT22;27869;51.442;7.540;2023-02-12T02:22:53;7.60;99.90
42201;DHT22;27869;51.442;7.540;2023-02-12T02:28:57;7.60;99.90
42201;DHT22;27869;51.442;7.540;2023-02-12T02:31:29;7.60;99.90
42201;DHT22;27869;51.442;7.540;2023-02-12T02:34:02;7.60;99.90
42201;DHT22;27869;51.442;7.540;2023-02-12T02:36:36;7.50;99.90
42201;DHT22;27869;51.442;7.540;2023-02-12T02:39:08;7.50;99.90
42201;DHT22;27869;51.442;7.540;2023-02-12T02:41:43;7.50;99.90
42201;DHT22;27869;51.442;7.540;2023-02-12T02:44:14;7.50;99.90
42201;DHT22;27869;51.442;7.540;2023-02-12T02:46:46;7.50;99.90
42201;DHT22;27869;51.442;7.540;2023-02-12T02:49:16;7.50;99.90
42201;DHT22;27869;51.442;7.540;2023-02-12T02:51:48;7.50;99.90
42201;DHT22;27869;51.442;7.540;2023-02-12T02:54:20;7.50;99.90
42201;DHT22;27869;51.442;7.540;2023-02-12T02:56:49;7.50;99.90
42201;DHT22;27869;51.442;7.540;2023-02-12T02:59:19;7.50;99.90
42201;DHT22;27869;51.442;7.540;2023-02-12T03:01:52;7.50;99.90
42201;DHT22;27869;51.442;7.540;2023-02-12T03:04:24;7.50;99.90
42201;DHT22;27869;51.442;7.540;2023-02-12T03:06:57;7.50;99.90
42201;DHT22;27869;51.442;7.540;2023-02-12T03:09:29;7.50;99.90
42201;DHT22;27869;51.442;7.540;2023-02-12T03:12:01;7.50;99.90
42201;DHT22;27869;51.442;7.540;2023-02-12T03:14:32;7.50;99.90
42201;DHT22;27869;51.442;7.540;2023-02-12T03:17:04;7.50;99.90
42201;DHT22;27869;51.442;7.540;2023-02-12T03:19:35;7.50;99.90
42201;DHT22;27869;51.442;7.540;2023-02-12T03:22:05;7.50;99.90
42201;DHT22;27869;51.442;7.540;2023-02-12T03:24:36;7.50;99.90
42201;DHT22;27869;51.442;7.540;2023-02-12T03:27:07;7.50;99.90
42201;DHT22;27869;51.442;7.540;2023-02-12T03:29:36;7.50;99.90
42201;DHT22;27869;51.442;7.540;2023-02-12T03:32:23;7.40;99.90
42201;DHT22;27869;51.442;7.540;2023-02-12T03:35:01;7.40;99.90
42201;DHT22;27869;51.442;7.540;2023-02-12T03:37:34;7.40;99.90
42201;DHT22;27869;51.442;7.540;2023-02-12T03:40:10;7.40;99.90
42201;DHT22;27869;51.442;7.540;2023-02-12T03:42:44;7.40;99.90
42201;DHT22;27869;51.442;7.540;2023-02-12T03:45:18;7.40;99.90
42201;DHT22;27869;51.442;7.540;2023-02-12T03:47:49;7.30;99.90
42201;DHT22;27869;51.442;7.540;2023-02-12T03:50:22;7.30;99.90
42201;DHT22;27869;51.442;7.540;2023-02-12T03:52:52;7.30;99.90
42201;DHT22;27869;51.442;7.540;2023-02-12T03:55:19;7.30;99.90
42201;DHT22;27869;51.442;7.540;2023-02-12T03:57:51;7.30;99.90
42201;DHT22;27869;51.442;7.540;2023-02-12T04:00:21;7.30;99.90
42201;DHT22;27869;51.442;7.540;2023-02-12T04:02:49;7.30;99.90
42201;DHT22;27869;51.442;7.540;2023-02-12T04:05:18;7.30;99.90
42201;DHT22;27869;51.442;7.540;2023-02-12T04:07:46;7.30;99.90
42201;DHT22;27869;51.442;7.540;2023-02-12T04:10:13;7.30;99.90
42201;DHT22;27869;51.442;7.540;2023-02-12T04:12:45;7.30;99.90
42201;DHT22;27869;51.442;7.540;2023-02-12T04:15:28;7.30;99.90
42201;DHT22;27869;51.442;7.540;2023-02-12T04:18:03;7.30;99.90
42201;DHT22;27869;51.442;7.540;2023-02-12T04:20:47;7.30;99.90
42201;DHT22;27869;51.442;7.540;2023-02-12T04:23:22;7.30;99.90
42201;DHT22;27869;51.442;7.540;2023-02-12T04:25:56;7.30;99.90
42201;DHT22;27869;51.442;7.540;2023-02-12T04:28:33;7.30;99.90
42201;DHT22;27869;51.442;7.540;2023-02-12T04:31:04;7.30;99.90
42201;DHT22;27869;51.442;7.540;2023-02-12T04:33:41;7.30;99.90
42201;DHT22;27869;51.442;7.540;2023-02-12T04:36:14;7.30;99.90
42201;DHT22;27869;51.442;7.540;2023-02-12T04:38:47;7.30;99.90
42201;DHT22;27869;51.442;7.540;2023-02-12T04:41:17;7.30;99.90
42201;DHT22;27869;51.442;7.540;2023-02-12T04:43:44;7.30;99.90
42201;DHT22;27869;51.442;7.540;2023-02-12T04:46:11;7.30;99.90
42201;DHT22;27869;51.442;7.540;2023-02-12T04:48:49;7.30;99.90
42201;DHT22;27869;51.442;7.540;2023-02-12T04:51:17;7.30;99.90
42201;DHT22;27869;51.442;7.540;2023-02-12T04:53:45;7.30;99.90
42201;DHT22;27869;51.442;7.540;2023-02-12T04:56:12;7.30;99.90
42201;DHT22;27869;51.442;7.540;2023-02-12T04:58:39;7.30;99.90
42201;DHT22;27869;51.442;7.540;2023-02-12T05:01:06;7.30;99.90
42201;DHT22;27869;51.442;7.540;2023-02-12T05:03:33;7.30;99.90
42201;DHT22;27869;51.442;7.540;2023-02-12T05:06:03;7.30;99.90
42201;DHT22;27869;51.442;7.540;2023-02-12T05:08:31;7.30;99.90
42201;DHT22;27869;51.442;7.540;2023-02-12T05:11:02;7.30;99.90
42201;DHT22;27869;51.442;7.540;2023-02-12T05:13:29;7.30;99.90
42201;DHT22;27869;51.442;7.540;2023-02-12T05:15:56;7.30;99.90
42201;DHT22;27869;51.442;7.540;2023-02-12T05:18:23;7.30;99.90
42201;DHT22;27869;51.442;7.540;2023-02-12T05:20:54;7.30;99.90
42201;DHT22;27869;51.442;7.540;2023-02-12T05:23:25;7.30;99.90
42201;DHT22;27869;51.442;7.540;2023-02-12T05:25:52;7.20;99.90
42201;DHT22;27869;51.442;7.540;2023-02-12T05:28:19;7.30;99.90
42201;DHT22;27869;51.442;7.540;2023-02-12T05:30:46;7.30;99.90
42201;DHT22;27869;51.442;7.540;2023-02-12T05:33:13;7.20;99.90
42201;DHT22;27869;51.442;7.540;2023-02-12T05:35:40;7.20;99.90
42201;DHT22;27869;51.442;7.540;2023-02-12T05:38:06;7.20;99.90
42201;DHT22;27869;51.442;7.540;2023-02-12T05:40:35;7.20;99.90
42201;DHT22;27869;51.442;7.540;2023-02-12T05:43:02;7.20;99.90
42201;DHT22;27869;51.442;7.540;2023-02-12T05:45:29;7.20;99.90
42201;DHT22;27869;51.442;7.540;2023-02-12T05:47:57;7.20;99.90
42201;DHT22;27869;51.442;7.540;2023-02-12T05:50:24;7.20;99.90
42201;DHT22;27869;51.442;7.540;2023-02-12T05:52:51;7.20;99.90
42201;DHT22;27869;51.442;7.540;2023-02-12T05:55:18;7.20;99.90
42201;DHT22;27869;51.442;7.540;2023-02-12T05:57:46;7.20;99.90
42201;DHT22;27869;51.442;7.540;2023-02-12T06:00:14;7.20;99.90
42201;DHT22;27869;51.442;7.540;2023-02-12T06:02:41;7.20;99.90
42201;DHT22;27869;51.442;7.540;2023-02-12T06:05:08;7.20;99.90
42201;DHT22;27869;51.442;7.540;2023-02-12T06:07:35;7.20;99.90
42201;DHT22;27869;51.442;7.540;2023-02-12T06:10:01;7.10;99.90
42201;DHT22;27869;51.442;7.540;2023-02-12T06:12:28;7.10;99.90
42201;DHT22;27869;51.442;7.540;2023-02-12T06:14:57;7.10;99.90
42201;DHT22;27869;51.442;7.540;2023-02-12T06:17:23;7.10;99.90
42201;DHT22;27869;51.442;7.540;2023-02-12T06:19:50;7.10;99.90
42201;DHT22;27869;51.442;7.540;2023-02-12T06:22:17;7.10;99.90
42201;DHT22;27869;51.442;7.540;2023-02-12T06:24:44;7.10;99.90
42201;DHT22;27869;51.442;7.540;2023-02-12T06:27:11;7.10;99.90
42201;DHT22;27869;51.442;7.540;2023-02-12T06:29:38;7.10;99.90
42201;DHT22;27869;51.442;7.540;2023-02-12T06:32:06;7.10;99.90
42201;DHT22;27869;51.442;7.540;2023-02-12T06:34:33;7.10;99.90
42201;DHT22;27869;51.442;7.540;2023-02-12T06:37:00;7.10;99.90
42201;DHT22;27869;51.442;7.540;2023-02-12T06:39:27;7.10;99.90
42201;DHT22;27869;51.442;7.540;2023-02-12T06:41:54;7.10;99.90
42201;DHT22;27869;51.442;7.540;2023-02-12T06:44:21;7.10;99.90
42201;DHT22;27869;51.442;7.540;2023-02-12T06:46:47;7.10;99.90
42201;DHT22;27869;51.442;7.540;2023-02-12T06:49:16;7.10;99.90
42201;DHT22;27869;51.442;7.540;2023-02-12T06:51:42;7.20;99.90
42201;DHT22;27869;51.442;7.540;2023-02-12T06:54:14;7.20;99.90
42201;DHT22;27869;51.442;7.540;2023-02-12T06:56:41;7.20;99.90
42201;DHT22;27869;51.442;7.540;2023-02-12T06:59:11;7.20;99.90
42201;DHT22;27869;51.442;7.540;2023-02-12T07:01:39;7.20;99.90
42201;DHT22;27869;51.442;7.540;2023-02-12T07:04:06;7.20;99.90
42201;DHT22;27869;51.442;7.540;2023-02-12T07:06:35;7.20;99.90
42201;DHT22;27869;51.442;7.540;2023-02-12T07:09:02;7.20;99.90
42201;DHT22;27869;51.442;7.540;2023-02-12T07:11:31;7.20;99.90
42201;DHT22;27869;51.442;7.540;2023-02-12T07:13:59;7.20;99.90
42201;DHT22;27869;51.442;7.540;2023-02-12T07:16:26;7.20;99.90
42201;DHT22;27869;51.442;7.540;2023-02-12T07:18:53;7.20;99.90
42201;DHT22;27869;51.442;7.540;2023-02-12T07:21:20;7.20;99.90
42201;DHT22;27869;51.442;7.540;2023-02-12T07:23:49;7.20;99.90
42201;DHT22;27869;51.442;7.540;2023-02-12T07:26:17;7.20;99.90
42201;DHT22;27869;51.442;7.540;2023-02-12T07:28:44;7.20;99.90
42201;DHT22;27869;51.442;7.540;2023-02-12T07:31:14;7.20;99.90
42201;DHT22;27869;51.442;7.540;2023-02-12T07:33:41;7.30;99.90
42201;DHT22;27869;51.442;7.540;2023-02-12T07:36:09;7.30;99.90
42201;DHT22;27869;51.442;7.540;2023-02-12T07:38:36;7.30;99.90
42201;DHT22;27869;51.442;7.540;2023-02-12T07:41:11;7.30;99.90
42201;DHT22;27869;51.442;7.540;2023-02-12T07:43:39;7.30;99.90
42201;DHT22;27869;51.442;7.540;2023-02-12T07:46:08;7.30;99.90
42201;DHT22;27869;51.442;7.540;2023-02-12T07:48:35;7.30;99.90
42201;DHT22;27869;51.442;7.540;2023-02-12T07:51:04;7.30;99.90
42201;DHT22;27869;51.442;7.540;2023-02-12T07:53:31;7.30;99.90
42201;DHT22;27869;51.442;7.540;2023-02-12T07:56:09;7.30;99.90
42201;DHT22;27869;51.442;7.540;2023-02-12T07:58:36;7.40;99.90
42201;DHT22;27869;51.442;7.540;2023-02-12T08:01:15;7.40;99.90
42201;DHT22;27869;51.442;7.540;2023-02-12T08:03:42;7.40;99.90
42201;DHT22;27869;51.442;7.540;2023-02-12T08:06:10;7.40;99.90
42201;DHT22;27869;51.442;7.540;2023-02-12T08:08:37;7.40;99.90
42201;DHT22;27869;51.442;7.540;2023-02-12T08:11:05;7.40;99.90
42201;DHT22;27869;51.442;7.540;2023-02-12T08:13:34;7.50;99.90
42201;DHT22;27869;51.442;7.540;2023-02-12T08:16:01;7.50;99.90
42201;DHT22;27869;51.442;7.540;2023-02-12T08:18:30;7.50;99.90
42201;DHT22;27869;51.442;7.540;2023-02-12T08:21:01;7.50;99.90
42201;DHT22;27869;51.442;7.540;2023-02-12T08:23:29;7.50;99.90
42201;DHT22;27869;51.442;7.540;2023-02-12T08:26:04;7.60;99.90
42201;DHT22;27869;51.442;7.540;2023-02-12T08:28:31;7.60;99.90
42201;DHT22;27869;51.442;7.540;2023-02-12T08:31:01;7.60;99.90
42201;DHT22;27869;51.442;7.540;2023-02-12T08:33:28;7.60;99.90
42201;DHT22;27869;51.442;7.540;2023-02-12T08:36:01;7.70;99.90
42201;DHT22;27869;51.442;7.540;2023-02-12T08:38:28;7.70;99.90
42201;DHT22;27869;51.442;7.540;2023-02-12T08:40:59;7.70;99.90
42201;DHT22;27869;51.442;7.540;2023-02-12T08:43:27;7.70;99.90
42201;DHT22;27869;51.442;7.540;2023-02-12T08:45:53;7.80;99.90
42201;DHT22;27869;51.442;7.540;2023-02-12T08:48:23;7.80;99.90
42201;DHT22;27869;51.442;7.540;2023-02-12T08:50:50;7.80;99.90
42201;DHT22;27869;51.442;7.540;2023-02-12T08:53:17;7.80;99.90
42201;DHT22;27869;51.442;7.540;2023-02-12T08:55:47;7.90;99.90
42201;DHT22;27869;51.442;7.540;2023-02-12T08:58:15;7.90;99.90
42201;DHT22;27869;51.442;7.540;2023-02-12T09:00:42;7.90;99.90
42201;DHT22;27869;51.442;7.540;2023-02-12T09:03:09;8.00;99.90
42201;DHT22;27869;51.442;7.540;2023-02-12T09:05:39;8.00;99.90
42201;DHT22;27869;51.442;7.540;2023-02-12T09:08:06;8.00;99.90
42201;DHT22;27869;51.442;7.540;2023-02-12T09:10:33;8.00;99.90
42201;DHT22;27869;51.442;7.540;2023-02-12T09:13:00;8.10;99.90
42201;DHT22;27869;51.442;7.540;2023-02-12T09:15:27;8.10;99.90
42201;DHT22;27869;51.442;7.540;2023-02-12T09:17:54;8.10;99.90
42201;DHT22;27869;51.442;7.540;2023-02-12T09:20:20;8.10;99.90
42201;DHT22;27869;51.442;7.540;2023-02-12T09:22:51;8.10;99.90
42201;DHT22;27869;51.442;7.540;2023-02-12T09:25:19;8.10;99.90
42201;DHT22;27869;51.442;7.540;2023-02-12T09:27:45;8.20;99.90
42201;DHT22;27869;51.442;7.540;2023-02-12T09:30:13;8.20;99.90
42201;DHT22;27869;51.442;7.540;2023-02-12T09:32:40;8.20;99.90
42201;DHT22;27869;51.442;7.540;2023-02-12T09:35:07;8.30;99.90
42201;DHT22;27869;51.442;7.540;2023-02-12T09:37:36;8.30;99.90
42201;DHT22;27869;51.442;7.540;2023-02-12T09:40:06;8.40;99.90
42201;DHT22;27869;51.442;7.540;2023-02-12T09:45:29;8.40;99.90
42201;DHT22;27869;51.442;7.540;2023-02-12T09:48:04;8.50;99.90
42201;DHT22;27869;51.442;7.540;2023-02-12T09:50:42;8.50;99.90
42201;DHT22;27869;51.442;7.540;2023-02-12T09:53:12;8.60;99.90
42201;DHT22;27869;51.442;7.540;2023-02-12T09:55:41;8.60;99.90
42201;DHT22;27869;51.442;7.540;2023-02-12T09:58:13;8.70;99.90
42201;DHT22;27869;51.442;7.540;2023-02-12T10:00:40;8.70;99.90
42201;DHT22;27869;51.442;7.540;2023-02-12T10:03:12;8.80;99.90
42201;DHT22;27869;51.442;7.540;2023-02-12T10:05:44;8.80;99.90
42201;DHT22;27869;51.442;7.540;2023-02-12T10:11:17;8.90;99.90
42201;DHT22;27869;51.442;7.540;2023-02-12T10:13:53;9.00;99.90
42201;DHT22;27869;51.442;7.540;2023-02-12T10:16:35;9.00;99.90
42201;DHT22;27869;51.442;7.540;2023-02-12T10:19:18;9.10;99.90
42201;DHT22;27869;51.442;7.540;2023-02-12T10:21:54;9.10;99.90
42201;DHT22;27869;51.442;7.540;2023-02-12T10:24:42;9.10;99.90
42201;DHT22;27869;51.442;7.540;2023-02-12T10:27:16;9.20;99.90
42201;DHT22;27869;51.442;7.540;2023-02-12T10:29:45;9.20;99.90
42201;DHT22;27869;51.442;7.540;2023-02-12T10:32:22;9.30;99.90
42201;DHT22;27869;51.442;7.540;2023-02-12T10:34:50;9.30;99.90
42201;DHT22;27869;51.442;7.540;2023-02-12T10:37:25;9.30;99.90
42201;DHT22;27869;51.442;7.540;2023-02-12T10:39:57;9.40;99.90
42201;DHT22;27869;51.442;7.540;2023-02-12T10:42:35;9.40;99.90
42201;DHT22;27869;51.442;7.540;2023-02-12T10:45:04;9.40;99.90
42201;DHT22;27869;51.442;7.540;2023-02-12T10:47:31;9.40;99.90
42201;DHT22;27869;51.442;7.540;2023-02-12T10:50:01;9.50;99.90
42201;DHT22;27869;51.442;7.540;2023-02-12T10:52:35;9.50;99.90
42201;DHT22;27869;51.442;7.540;2023-02-12T10:55:23;9.50;99.90
42201;DHT22;27869;51.442;7.540;2023-02-12T10:57:52;9.60;99.90
42201;DHT22;27869;51.442;7.540;2023-02-12T11:00:25;9.60;99.90
42201;DHT22;27869;51.442;7.540;2023-02-12T11:03:04;9.60;99.90
42201;DHT22;27869;51.442;7.540;2023-02-12T11:05:34;9.60;99.90
42201;DHT22;27869;51.442;7.540;2023-02-12T11:08:01;9.70;99.90
42201;DHT22;27869;51.442;7.540;2023-02-12T11:10:31;9.70;99.90
42201;DHT22;27869;51.442;7.540;2023-02-12T11:13:00;9.70;99.90
42201;DHT22;27869;51.442;7.540;2023-02-12T11:15:34;9.70;99.90
42201;DHT22;27869;51.442;7.540;2023-02-12T11:18:03;9.70;99.90
42201;DHT22;27869;51.442;7.540;2023-02-12T11:20:36;9.80;99.90
42201;DHT22;27869;51.442;7.540;2023-02-12T11:23:06;9.80;99.90
42201;DHT22;27869;51.442;7.540;2023-02-12T11:25:55;9.80;99.90
42201;DHT22;27869;51.442;7.540;2023-02-12T11:28:24;9.90;99.90
42201;DHT22;27869;51.442;7.540;2023-02-12T11:30:54;9.90;99.90
42201;DHT22;27869;51.442;7.540;2023-02-12T11:33:25;9.90;99.90
42201;DHT22;27869;51.442;7.540;2023-02-12T11:35:55;9.90;99.90
42201;DHT22;27869;51.442;7.540;2023-02-12T11:38:26;9.90;99.90
42201;DHT22;27869;51.442;7.540;2023-02-12T11:40:58;10.00;99.90
42201;DHT22;27869;51.442;7.540;2023-02-12T11:43:28;10.00;99.90
42201;DHT22;27869;51.442;7.540;2023-02-12T11:45:56;10.00;99.90
42201;DHT22;27869;51.442;7.540;2023-02-12T11:48:28;10.00;99.90
42201;DHT22;27869;51.442;7.540;2023-02-12T11:50:57;10.00;99.90
42201;DHT22;27869;51.442;7.540;2023-02-12T11:53:29;10.00;99.90
42201;DHT22;27869;51.442;7.540;2023-02-12T11:55:59;10.10;99.90
42201;DHT22;27869;51.442;7.540;2023-02-12T11:58:29;10.10;99.90
42201;DHT22;27869;51.442;7.540;2023-02-12T12:01:02;10.10;99.90
42201;DHT22;27869;51.442;7.540;2023-02-12T12:03:35;10.10;99.90
42201;DHT22;27869;51.442;7.540;2023-02-12T12:06:20;10.10;99.90
42201;DHT22;27869;51.442;7.540;2023-02-12T12:08:52;10.10;99.90
42201;DHT22;27869;51.442;7.540;2023-02-12T12:11:24;10.10;99.90
42201;DHT22;27869;51.442;7.540;2023-02-12T12:13:58;10.10;99.90
42201;DHT22;27869;51.442;7.540;2023-02-12T12:16:30;10.10;99.90
42201;DHT22;27869;51.442;7.540;2023-02-12T12:19:20;10.00;99.90
42201;DHT22;27869;51.442;7.540;2023-02-12T12:22:12;10.00;99.90
42201;DHT22;27869;51.442;7.540;2023-02-12T12:24:46;10.00;99.90
42201;DHT22;27869;51.442;7.540;2023-02-12T12:27:20;10.00;99.90
42201;DHT22;27869;51.442;7.540;2023-02-12T12:30:14;10.00;99.90
42201;DHT22;27869;51.442;7.540;2023-02-12T12:32:44;10.00;99.90
42201;DHT22;27869;51.442;7.540;2023-02-12T12:35:17;9.90;99.90
42201;DHT22;27869;51.442;7.540;2023-02-12T12:37:49;9.90;99.90
42201;DHT22;27869;51.442;7.540;2023-02-12T12:40:36;9.90;99.90
42201;DHT22;27869;51.442;7.540;2023-02-12T12:43:13;10.00;99.90
42201;DHT22;27869;51.442;7.540;2023-02-12T12:49:14;9.90;99.90
42201;DHT22;27869;51.442;7.540;2023-02-12T12:51:59;10.00;99.90
42201;DHT22;27869;51.442;7.540;2023-02-12T12:54:38;10.00;99.90
42201;DHT22;27869;51.442;7.540;2023-02-12T12:57:12;9.90;99.90
42201;DHT22;27869;51.442;7.540;2023-02-12T12:59:53;9.90;99.90
42201;DHT22;27869;51.442;7.540;2023-02-12T13:03:18;10.00;99.90
42201;DHT22;27869;51.442;7.540;2023-02-12T13:06:13;9.90;99.90
42201;DHT22;27869;51.442;7.540;2023-02-12T13:09:01;10.00;99.90
42201;DHT22;27869;51.442;7.540;2023-02-12T13:11:38;9.90;99.90
42201;DHT22;27869;51.442;7.540;2023-02-12T13:16:59;9.90;99.90
42201;DHT22;27869;51.442;7.540;2023-02-12T13:19:41;10.00;99.90
42201;DHT22;27869;51.442;7.540;2023-02-12T13:22:15;9.90;99.90
42201;DHT22;27869;51.442;7.540;2023-02-12T13:24:50;9.90;99.90
42201;DHT22;27869;51.442;7.540;2023-02-12T13:27:24;9.90;99.90
42201;DHT22;27869;51.442;7.540;2023-02-12T13:29:53;9.90;99.90
42201;DHT22;27869;51.442;7.540;2023-02-12T13:32:27;9.90;99.90
42201;DHT22;27869;51.442;7.540;2023-02-12T13:34:56;9.90;99.90
42201;DHT22;27869;51.442;7.540;2023-02-12T13:37:34;9.90;99.90
42201;DHT22;27869;51.442;7.540;2023-02-12T13:40:03;9.90;99.90
42201;DHT22;27869;51.442;7.540;2023-02-12T13:42:42;9.90;99.90
42201;DHT22;27869;51.442;7.540;2023-02-12T13:45:33;9.90;99.90
42201;DHT22;27869;51.442;7.540;2023-02-12T13:48:20;9.90;99.90
42201;DHT22;27869;51.442;7.540;2023-02-12T13:50:57;9.90;99.90
42201;DHT22;27869;51.442;7.540;2023-02-12T13:53:31;9.90;99.90
42201;DHT22;27869;51.442;7.540;2023-02-12T13:56:06;9.90;99.90
42201;DHT22;27869;51.442;7.540;2023-02-12T13:58:47;9.90;99.90
42201;DHT22;27869;51.442;7.540;2023-02-12T14:01:37;9.90;99.90
42201;DHT22;27869;51.442;7.540;2023-02-12T14:04:26;9.90;99.90
42201;DHT22;27869;51.442;7.540;2023-02-12T14:06:58;9.90;99.90
42201;DHT22;27869;51.442;7.540;2023-02-12T14:09:30;9.90;99.90
42201;DHT22;27869;51.442;7.540;2023-02-12T14:11:59;9.80;99.90
42201;DHT22;27869;51.442;7.540;2023-02-12T14:14:29;9.80;99.90
42201;DHT22;27869;51.442;7.540;2023-02-12T14:16:57;9.80;99.90
42201;DHT22;27869;51.442;7.540;2023-02-12T14:19:53;9.90;99.90
42201;DHT22;27869;51.442;7.540;2023-02-12T14:25:39;9.80;99.90
42201;DHT22;27869;51.442;7.540;2023-02-12T14:28:19;9.80;99.90
42201;DHT22;27869;51.442;7.540;2023-02-12T14:33:50;9.80;99.90
42201;DHT22;27869;51.442;7.540;2023-02-12T14:36:35;9.70;99.90
42201;DHT22;27869;51.442;7.540;2023-02-12T14:39:26;9.70;99.90
42201;DHT22;27869;51.442;7.540;2023-02-12T14:45:01;9.70;99.90
42201;DHT22;27869;51.442;7.540;2023-02-12T14:47:49;9.70;99.90
42201;DHT22;27869;51.442;7.540;2023-02-12T14:50:17;9.70;99.90
42201;DHT22;27869;51.442;7.540;2023-02-12T14:52:51;9.70;99.90
42201;DHT22;27869;51.442;7.540;2023-02-12T14:55:25;9.60;99.90
42201;DHT22;27869;51.442;7.540;2023-02-12T14:57:58;9.70;99.90
42201;DHT22;27869;51.442;7.540;2023-02-12T15:00:28;9.70;99.90
42201;DHT22;27869;51.442;7.540;2023-02-12T15:03:00;9.60;99.90
42201;DHT22;27869;51.442;7.540;2023-02-12T15:05:30;9.60;99.90
42201;DHT22;27869;51.442;7.540;2023-02-12T15:07:59;9.60;99.90
42201;DHT22;27869;51.442;7.540;2023-02-12T15:10:31;9.60;99.90
42201;DHT22;27869;51.442;7.540;2023-02-12T15:13:08;9.60;99.90
42201;DHT22;27869;51.442;7.540;2023-02-12T15:15:45;9.60;99.90
42201;DHT22;27869;51.442;7.540;2023-02-12T15:18:19;9.60;99.90
42201;DHT22;27869;51.442;7.540;2023-02-12T15:20:50;9.50;99.90
42201;DHT22;27869;51.442;7.540;2023-02-12T15:23:38;9.60;99.90
42201;DHT22;27869;51.442;7.540;2023-02-12T15:26:08;9.60;99.90
42201;DHT22;27869;51.442;7.540;2023-02-12T15:28:39;9.60;99.90
42201;DHT22;27869;51.442;7.540;2023-02-12T15:31:07;9.50;99.90
42201;DHT22;27869;51.442;7.540;2023-02-12T15:33:38;9.50;99.90
42201;DHT22;27869;51.442;7.540;2023-02-12T15:36:07;9.50;99.90
42201;DHT22;27869;51.442;7.540;2023-02-12T15:38:36;9.50;99.90
42201;DHT22;27869;51.442;7.540;2023-02-12T15:41:05;9.50;99.90
42201;DHT22;27869;51.442;7.540;2023-02-12T15:43:34;9.50;99.90
42201;DHT22;27869;51.442;7.540;2023-02-12T15:46:04;9.50;99.90
42201;DHT22;27869;51.442;7.540;2023-02-12T15:48:34;9.50;99.90
42201;DHT22;27869;51.442;7.540;2023-02-12T15:51:09;9.40;99.90
42201;DHT22;27869;51.442;7.540;2023-02-12T15:53:41;9.40;99.90
42201;DHT22;27869;51.442;7.540;2023-02-12T15:56:12;9.40;99.90
42201;DHT22;27869;51.442;7.540;2023-02-12T15:58:42;9.40;99.90
42201;DHT22;27869;51.442;7.540;2023-02-12T16:01:15;9.30;99.90
42201;DHT22;27869;51.442;7.540;2023-02-12T16:03:43;9.30;99.90
42201;DHT22;27869;51.442;7.540;2023-02-12T16:06:15;9.30;99.90
42201;DHT22;27869;51.442;7.540;2023-02-12T16:08:43;9.30;99.90
42201;DHT22;27869;51.442;7.540;2023-02-12T16:11:12;9.30;99.90
42201;DHT22;27869;51.442;7.540;2023-02-12T16:13:42;9.30;99.90
42201;DHT22;27869;51.442;7.540;2023-02-12T16:16:23;9.30;99.90
42201;DHT22;27869;51.442;7.540;2023-02-12T16:19:14;9.30;99.90
42201;DHT22;27869;51.442;7.540;2023-02-12T16:21:43;9.30;99.90
42201;DHT22;27869;51.442;7.540;2023-02-12T16:24:22;9.20;99.90
42201;DHT22;27869;51.442;7.540;2023-02-12T16:26:50;9.20;99.90
42201;DHT22;27869;51.442;7.540;2023-02-12T16:29:18;9.20;99.90
42201;DHT22;27869;51.442;7.540;2023-02-12T16:31:55;9.20;99.90
42201;DHT22;27869;51.442;7.540;2023-02-12T16:34:28;9.20;99.90
42201;DHT22;27869;51.442;7.540;2023-02-12T16:36:55;9.20;99.90